Time;durP1;ratioP1;P1;durP2;ratioP2;P2;SDS_P1;SDS_P2;PMS_P1;PMS_P2;Temp;Humidity;BMP_temperature;BMP_pressure;BME280_temperature;BME280_humidity;BME280_pressure;Samples;Min_cycle;Max_cycle;Signal;HPM_P1;HPM_P2
2021/06/01 00:00:09;;;;;;;3.75;1.27;;;21.70;42.80;;;;;;5095089;28;20020;-68
2021/06/01 00:02:34;;;;;;;2.80;1.20;;;21.70;42.80;;;;;;5095161;28;20426;-68
2021/06/01 00:05:00;;;;;;;5.20;1.52;;;21.70;42.80;;;;;;5095069;28;20030;-68
2021/06/01 00:07:26;;;;;;;3.40;1.30;;;21.70;42.80;;;;;;5095254;28;20076;-69
2021/06/01 00:09:51;;;;;;;4.75;1.40;;;21.60;42.80;;;;;;5095176;28;20103;-67
2021/06/01 00:12:17;;;;;;;3.65;1.50;;;21.60;42.80;;;;;;5093683;28;20399;-69
2021/06/01 00:14:43;;;;;;;3.05;1.40;;;21.60;42.80;;;;;;5093876;28;20017;-69
2021/06/01 00:17:08;;;;;;;2.60;1.15;;;21.60;42.80;;;;;;5093597;28;20028;-68
2021/06/01 00:19:34;;;;;;;3.85;1.48;;;21.60;42.80;;;;;;5093549;28;20023;-68
2021/06/01 00:21:59;;;;;;;2.95;1.20;;;21.60;42.80;;;;;;5094687;28;20086;-67
2021/06/01 00:24:25;;;;;;;3.63;1.55;;;21.60;42.80;;;;;;5093308;28;20105;-68
2021/06/01 00:26:50;;;;;;;4.72;1.30;;;21.60;42.80;;;;;;5094633;28;20099;-68
2021/06/01 00:29:16;;;;;;;3.33;1.40;;;21.60;42.90;;;;;;5094526;28;20024;-68
2021/06/01 00:31:42;;;;;;;3.47;1.33;;;21.50;42.90;;;;;;5094501;28;20069;-68
2021/06/01 00:34:08;;;;;;;3.97;1.23;;;21.50;42.90;;;;;;5093374;28;20430;-68
2021/06/01 00:36:34;;;;;;;2.80;1.30;;;21.50;42.90;;;;;;5094333;28;20058;-68
2021/06/01 00:39:00;;;;;;;3.53;1.40;;;21.50;42.90;;;;;;5094339;28;20036;-68
2021/06/01 00:41:26;;;;;;;3.10;1.13;;;21.50;42.90;;;;;;5092973;28;20016;-68
2021/06/01 00:43:51;;;;;;;3.58;1.35;;;21.50;42.90;;;;;;5092920;28;20388;-68
2021/06/01 00:46:17;;;;;;;3.95;1.50;;;21.50;42.90;;;;;;5094144;28;20028;-68
2021/06/01 00:48:42;;;;;;;3.65;1.50;;;21.50;42.90;;;;;;5094078;28;20039;-69
2021/06/01 00:51:08;;;;;;;2.65;1.27;;;21.50;42.90;;;;;;5094007;28;20016;-68
2021/06/01 00:53:36;;;;;;;3.30;1.58;;;21.50;43.00;;;;;;5094186;28;20039;-68
2021/06/01 00:56:04;;;;;;;2.92;1.40;;;21.50;42.90;;;;;;5093958;28;20024;-70
2021/06/01 00:58:29;;;;;;;2.28;1.05;;;21.50;42.90;;;;;;5093818;28;20031;-69
2021/06/01 01:03:33;;;;;;;3.15;1.20;;;21.50;42.90;;;;;;5093867;28;20022;-70
2021/06/01 01:06:07;;;;;;;3.25;1.40;;;21.40;42.90;;;;;;5093748;28;20074;-68
2021/06/01 01:08:51;;;;;;;4.78;1.85;;;21.40;43.00;;;;;;5093808;28;20035;-68
2021/06/01 01:11:25;;;;;;;3.58;1.52;;;21.40;43.00;;;;;;5093708;28;20066;-68
2021/06/01 01:14:06;;;;;;;;;;;21.40;43.00;;;;;;5094080;28;20040;-69
2021/06/01 01:16:34;;;;;;;4.22;1.52;;;21.40;43.00;;;;;;5093604;28;20006;-68
2021/06/01 01:19:12;;;;;;;3.40;1.42;;;21.30;43.00;;;;;;5091863;28;20046;-69
2021/06/01 01:21:52;;;;;;;3.65;1.40;;;21.30;43.10;;;;;;5093458;28;20036;-70
2021/06/01 01:24:36;;;;;;;2.67;1.38;;;21.30;43.00;;;;;;5091977;28;20093;-69
2021/06/01 01:27:15;;;;;;;3.05;1.42;;;21.30;43.10;;;;;;5093647;28;20108;-69
2021/06/01 01:29:43;;;;;;;3.45;1.30;;;21.30;43.10;;;;;;5093441;28;20024;-68
2021/06/01 01:32:19;;;;;;;3.38;1.40;;;21.20;43.10;;;;;;5092008;28;20024;-69
2021/06/01 01:34:46;;;;;;;3.42;1.55;;;21.20;43.10;;;;;;5092018;28;20379;-68
2021/06/01 01:37:11;;;;;;;3.70;1.38;;;21.20;43.10;;;;;;5093210;28;20024;-68
2021/06/01 01:39:44;;;;;;;3.45;1.63;;;21.20;43.10;;;;;;5093429;28;20028;-67
2021/06/01 01:42:12;;;;;;;3.03;1.52;;;21.20;43.10;;;;;;5093178;28;20028;-68
2021/06/01 01:44:48;;;;;;;3.50;1.30;;;21.20;43.10;;;;;;5093193;28;20518;-68
2021/06/01 01:50:07;;;;;;;2.75;1.27;;;21.20;43.10;;;;;;5093315;28;20081;-68
2021/06/01 01:52:39;;;;;;;3.45;1.55;;;21.20;43.10;;;;;;5092922;28;20036;-68
2021/06/01 01:55:07;;;;;;;3.53;1.25;;;21.20;43.10;;;;;;5093052;28;20478;-68
2021/06/01 01:57:35;;;;;;;3.40;1.50;;;21.10;43.10;;;;;;5093336;28;20052;-68
2021/06/01 02:00:05;;;;;;;2.25;1.10;;;21.20;43.10;;;;;;5091664;28;20034;-68
2021/06/01 02:02:31;;;;;;;2.67;1.20;;;21.20;43.10;;;;;;5091642;28;20024;-68
2021/06/01 02:04:57;;;;;;;2.95;1.30;;;21.10;43.10;;;;;;5093213;28;20031;-68
2021/06/01 02:07:22;;;;;;;2.58;1.25;;;21.10;43.10;;;;;;5093052;28;20112;-68
2021/06/01 02:09:48;;;;;;;3.00;1.48;;;21.10;43.10;;;;;;5092880;28;20106;-68
2021/06/01 02:12:15;;;;;;;3.63;1.40;;;21.10;43.10;;;;;;5092711;28;20387;-68
2021/06/01 02:14:40;;;;;;;3.72;1.33;;;21.10;43.20;;;;;;5092767;28;20020;-69
2021/06/01 02:17:06;;;;;;;2.47;1.20;;;21.00;43.20;;;;;;5092740;28;20028;-68
2021/06/01 02:19:31;;;;;;;4.63;1.55;;;21.00;43.20;;;;;;5092898;28;20024;-68
2021/06/01 02:22:20;;;;;;;3.33;1.42;;;21.10;43.20;;;;;;5092670;28;20028;-68
2021/06/01 02:24:54;;;;;;;2.90;1.42;;;21.00;43.20;;;;;;5092768;28;20043;-68
2021/06/01 02:27:40;;;;;;;;;;;21.00;43.20;;;;;;5093039;28;20024;-68
2021/06/01 02:30:10;;;;;;;3.38;1.45;;;21.00;43.20;;;;;;5093698;28;19912;-68
2021/06/01 02:32:47;;;;;;;3.38;1.50;;;21.00;43.20;;;;;;5095517;28;20470;-68
2021/06/01 02:35:18;;;;;;;3.67;1.58;;;21.00;43.30;;;;;;5096800;28;20516;-68
2021/06/01 02:37:47;;;;;;;3.47;1.50;;;21.00;43.30;;;;;;5096737;28;20028;-68
2021/06/01 02:40:14;;;;;;;2.45;1.20;;;21.00;43.30;;;;;;5096709;28;20028;-68
2021/06/01 02:42:43;;;;;;;3.10;1.42;;;21.00;43.30;;;;;;5096779;28;20062;-69
2021/06/01 02:45:12;;;;;;;3.22;1.45;;;21.00;43.30;;;;;;5096590;28;20035;-68
2021/06/01 02:47:39;;;;;;;3.85;1.58;;;21.00;43.40;;;;;;5096821;28;20114;-68
2021/06/01 02:50:08;;;;;;;3.38;1.50;;;20.90;43.30;;;;;;5096454;28;20020;-68
2021/06/01 02:52:35;;;;;;;4.18;1.50;;;21.00;43.30;;;;;;5096289;28;20034;-67
2021/06/01 02:55:02;;;;;;;3.67;1.40;;;21.00;43.30;;;;;;5096419;28;20020;-68
2021/06/01 02:57:28;;;;;;;4.05;1.58;;;20.90;43.30;;;;;;5096609;28;20028;-69
2021/06/01 02:59:54;;;;;;;4.88;1.80;;;20.90;43.30;;;;;;5096284;28;20020;-68
2021/06/01 03:02:20;;;;;;;4.03;1.85;;;20.90;43.30;;;;;;5095020;28;20361;-67
2021/06/01 03:04:50;;;;;;;3.33;1.48;;;20.90;43.30;;;;;;5096202;28;20072;-69
2021/06/01 03:07:16;;;;;;;3.13;1.55;;;20.80;43.40;;;;;;5096190;28;20024;-69
2021/06/01 03:09:41;;;;;;;5.68;1.60;;;20.90;43.30;;;;;;5096106;28;20372;-68
2021/06/01 03:12:09;;;;;;;2.65;1.45;;;20.90;43.30;;;;;;5096249;28;20028;-68
2021/06/01 03:14:34;;;;;;;3.40;1.55;;;20.80;43.30;;;;;;5096117;28;20020;-69
2021/06/01 03:17:00;;;;;;;3.38;1.20;;;20.90;43.30;;;;;;5094732;28;20051;-69
2021/06/01 03:19:25;;;;;;;3.33;1.60;;;20.80;43.30;;;;;;5094728;28;20078;-67
2021/06/01 03:21:51;;;;;;;5.60;1.65;;;20.80;43.30;;;;;;5095948;28;20042;-67
2021/06/01 03:24:16;;;;;;;4.30;1.80;;;20.80;43.40;;;;;;5094689;28;20093;-68
2021/06/01 03:26:42;;;;;;;4.65;1.95;;;20.80;43.40;;;;;;5093268;28;20016;-68
2021/06/01 03:29:07;;;;;;;3.50;1.52;;;20.70;43.40;;;;;;5094512;28;20032;-68
2021/06/01 03:31:33;;;;;;;5.22;1.60;;;20.80;43.40;;;;;;5094391;28;20024;-67
2021/06/01 03:33:58;;;;;;;3.00;1.52;;;20.80;43.40;;;;;;5094630;28;20032;-68
2021/06/01 03:36:24;;;;;;;5.20;1.70;;;20.70;43.50;;;;;;5094597;28;20111;-67
2021/06/01 03:38:51;;;;;;;4.50;1.90;;;20.70;43.50;;;;;;5094474;28;20032;-67
2021/06/01 03:41:17;;;;;;;3.60;1.52;;;20.70;43.40;;;;;;5093980;28;20020;-68
2021/06/01 03:43:43;;;;;;;3.63;1.65;;;20.70;43.40;;;;;;5093253;28;20056;-68
2021/06/01 03:46:08;;;;;;;4.25;1.35;;;20.70;43.40;;;;;;5094173;28;20040;-67
2021/06/01 03:48:34;;;;;;;3.42;1.60;;;20.70;43.50;;;;;;5094402;28;20112;-68
2021/06/01 03:50:59;;;;;;;3.38;1.50;;;20.70;43.40;;;;;;5094151;28;20103;-68
2021/06/01 03:53:28;;;;;;;4.50;1.90;;;20.70;43.40;;;;;;5094138;28;20043;-67
2021/06/01 03:55:54;;;;;;;4.65;1.92;;;20.60;43.50;;;;;;5094083;28;20016;-68
2021/06/01 03:58:20;;;;;;;4.55;2.03;;;20.70;43.40;;;;;;5094076;28;20035;-67
2021/06/01 04:00:46;;;;;;;3.60;1.73;;;20.60;43.50;;;;;;5093931;28;20028;-67
2021/06/01 04:03:11;;;;;;;5.30;2.22;;;20.60;43.40;;;;;;5093988;28;20020;-67
2021/06/01 04:05:37;;;;;;;3.42;1.60;;;20.60;43.50;;;;;;5094132;28;20024;-68
2021/06/01 04:08:05;;;;;;;4.75;2.10;;;20.60;43.50;;;;;;5094005;28;20020;-68
2021/06/01 04:10:32;;;;;;;4.25;1.92;;;20.60;43.50;;;;;;5093986;28;20036;-68
2021/06/01 04:12:57;;;;;;;4.85;1.85;;;20.60;43.40;;;;;;5093788;28;20032;-68
2021/06/01 04:15:23;;;;;;;3.40;1.60;;;20.60;43.50;;;;;;5093662;28;20537;-67
2021/06/01 04:17:48;;;;;;;4.35;1.90;;;20.60;43.50;;;;;;5093773;28;20036;-68
2021/06/01 04:20:14;;;;;;;4.55;1.90;;;20.50;43.60;;;;;;5093708;28;20024;-67
2021/06/01 04:22:40;;;;;;;4.30;1.92;;;20.50;43.50;;;;;;5057392;28;1026364;-67
2021/06/01 04:25:07;;;;;;;4.78;1.98;;;20.50;43.50;;;;;;5094692;28;20028;-68
2021/06/01 04:27:33;;;;;;;5.00;2.05;;;20.50;43.60;;;;;;5094591;28;20056;-69
2021/06/01 04:29:58;;;;;;;3.38;1.80;;;20.50;43.60;;;;;;5094547;28;20032;-67
2021/06/01 04:32:24;;;;;;;5.63;1.70;;;20.50;43.50;;;;;;5094454;28;20042;-68
2021/06/01 04:34:50;;;;;;;4.00;2.00;;;20.50;43.60;;;;;;5094411;28;20464;-68
2021/06/01 04:37:15;;;;;;;3.28;1.52;;;20.50;43.70;;;;;;5094423;28;20024;-67
2021/06/01 04:39:41;;;;;;;3.55;1.70;;;20.50;43.60;;;;;;5094342;28;20384;-69
2021/06/01 04:42:06;;;;;;;5.40;1.92;;;20.50;43.60;;;;;;5094358;28;20016;-68
2021/06/01 04:44:32;;;;;;;3.63;1.70;;;20.50;43.60;;;;;;5094191;28;20031;-68
2021/06/01 04:46:57;;;;;;;4.43;2.38;;;20.50;43.60;;;;;;5094216;28;20028;-67
2021/06/01 04:49:23;;;;;;;3.63;1.60;;;20.50;43.60;;;;;;5094380;28;20418;-68
2021/06/01 04:51:48;;;;;;;5.10;2.40;;;20.40;43.60;;;;;;5094273;28;20108;-68
2021/06/01 04:54:14;;;;;;;3.03;1.48;;;20.40;43.60;;;;;;5093246;28;20020;-69
2021/06/01 04:56:40;;;;;;;3.67;1.40;;;20.40;43.70;;;;;;5093939;28;20028;-68
2021/06/01 04:59:05;;;;;;;4.47;1.77;;;20.40;43.60;;;;;;5092718;28;20031;-67
2021/06/01 05:01:31;;;;;;;4.35;1.92;;;20.40;43.60;;;;;;5093877;28;20020;-69
2021/06/01 05:03:56;;;;;;;4.38;2.03;;;20.40;43.70;;;;;;5093842;28;20080;-67
2021/06/01 05:06:22;;;;;;;4.20;2.00;;;20.40;43.60;;;;;;5093777;28;20024;-69
2021/06/01 05:08:48;;;;;;;3.42;1.48;;;20.40;43.50;;;;;;5093740;28;20039;-68
2021/06/01 05:11:15;;;;;;;4.18;1.92;;;20.40;43.60;;;;;;5093745;28;20026;-68
2021/06/01 05:13:40;;;;;;;2.83;1.50;;;20.40;43.60;;;;;;5093728;28;20032;-68
2021/06/01 05:16:06;;;;;;;3.60;1.60;;;20.40;43.60;;;;;;5093713;28;20107;-69
2021/06/01 05:18:31;;;;;;;3.90;1.70;;;20.40;43.50;;;;;;5093542;28;20020;-68
2021/06/01 05:20:57;;;;;;;3.63;1.70;;;20.40;43.50;;;;;;5093703;28;20406;-68
2021/06/01 05:23:23;;;;;;;2.72;1.42;;;20.40;43.60;;;;;;5093269;28;20048;-69
2021/06/01 05:25:49;;;;;;;4.00;1.70;;;20.40;43.60;;;;;;5093462;28;20035;-68
2021/06/01 05:28:14;;;;;;;3.67;1.60;;;20.40;43.50;;;;;;5093335;28;20024;-68
2021/06/01 05:33:22;;;;;;;4.63;2.05;;;20.40;43.60;;;;;;5093523;28;20040;-68
2021/06/01 05:35:54;;;;;;;6.85;1.85;;;20.30;43.50;;;;;;5093269;28;20020;-69
2021/06/01 05:38:21;;;;;;;3.83;1.73;;;20.40;43.50;;;;;;5093531;28;20028;-69
2021/06/01 05:40:47;;;;;;;4.97;1.40;;;20.40;43.50;;;;;;5093202;28;20055;-68
2021/06/01 05:43:12;;;;;;;3.10;1.50;;;20.40;43.50;;;;;;5093432;28;20107;-69
2021/06/01 05:45:38;;;;;;;4.63;1.90;;;20.40;43.40;;;;;;5091980;28;20065;-68
2021/06/01 05:48:09;;;;;;;3.95;1.58;;;20.40;43.40;;;;;;5093161;28;20099;-69
2021/06/01 05:50:35;;;;;;;3.75;1.65;;;20.30;43.50;;;;;;5093031;28;20197;-68
2021/06/01 05:53:01;;;;;;;3.45;1.50;;;20.40;43.50;;;;;;5092798;28;20032;-69
2021/06/01 05:55:28;;;;;;;4.70;1.75;;;20.40;43.40;;;;;;5092928;28;20032;-68
2021/06/01 05:57:53;;;;;;;4.70;1.75;;;20.40;43.50;;;;;;5092864;28;20500;-69
2021/06/01 06:00:20;;;;;;;4.13;1.83;;;20.50;43.40;;;;;;5092965;28;20020;-68
2021/06/01 06:02:45;;;;;;;3.63;1.67;;;20.40;43.30;;;;;;5092901;28;20099;-68
2021/06/01 06:05:11;;;;;;;6.75;1.90;;;20.40;43.40;;;;;;5092734;28;20461;-68
2021/06/01 06:07:37;;;;;;;4.22;1.95;;;20.40;43.30;;;;;;5092851;28;20097;-69
2021/06/01 06:10:03;;;;;;;2.72;1.48;;;20.40;43.40;;;;;;5092787;28;20456;-68
2021/06/01 06:12:29;;;;;;;4.00;1.60;;;20.50;43.30;;;;;;5092658;28;20040;-68
2021/06/01 06:14:55;;;;;;;3.78;1.77;;;20.50;43.20;;;;;;5093039;28;20430;-69
2021/06/01 06:17:39;;;;;;;4.13;1.70;;;20.50;43.20;;;;;;5092689;28;20471;-68
2021/06/01 06:20:05;;;;;;;4.32;1.88;;;20.50;43.20;;;;;;5091307;28;20021;-69
2021/06/01 06:22:31;;;;;;;2.80;1.40;;;20.50;43.20;;;;;;5092475;28;20028;-68
2021/06/01 06:24:56;;;;;;;4.57;1.80;;;20.50;43.10;;;;;;5092593;28;20070;-68
2021/06/01 06:27:22;;;;;;;4.72;1.23;;;20.50;43.10;;;;;;5092592;28;20492;-68
2021/06/01 06:29:48;;;;;;;3.45;1.70;;;20.60;43.10;;;;;;5092541;28;20020;-68
2021/06/01 06:32:13;;;;;;;5.68;1.92;;;20.60;43.10;;;;;;5092410;28;20111;-68
2021/06/01 06:34:39;;;;;;;3.72;1.55;;;20.50;43.10;;;;;;5092479;28;20028;-68
2021/06/01 06:37:05;;;;;;;3.88;1.65;;;20.60;43.10;;;;;;5092424;28;20065;-68
2021/06/01 06:39:35;;;;;;;4.80;1.60;;;20.60;43.10;;;;;;5092511;28;20391;-68
2021/06/01 06:42:00;;;;;;;6.45;1.77;;;20.60;43.00;;;;;;5092667;28;20162;-68
2021/06/01 06:44:26;;;;;;;3.30;1.40;;;20.60;43.00;;;;;;5092396;28;20095;-68
2021/06/01 06:47:03;;;;;;;2.83;1.38;;;20.60;43.00;;;;;;5092344;28;20050;-68
2021/06/01 06:49:29;;;;;;;4.63;1.52;;;20.60;42.90;;;;;;5092439;28;20051;-68
2021/06/01 06:51:55;;;;;;;2.63;1.42;;;20.60;42.90;;;;;;5091221;28;20468;-69
2021/06/01 06:54:20;;;;;;;3.78;1.70;;;20.70;42.90;;;;;;5092288;28;20656;-68
2021/06/01 06:56:46;;;;;;;2.60;1.40;;;20.70;42.90;;;;;;5092197;28;20024;-68
2021/06/01 06:59:11;;;;;;;3.65;1.60;;;20.70;42.80;;;;;;5090797;28;20028;-68
2021/06/01 07:01:37;;;;;;;3.83;1.60;;;20.70;42.80;;;;;;5091793;28;20379;-67
2021/06/01 07:04:03;;;;;;;3.78;1.45;;;20.70;42.80;;;;;;5089644;28;20109;-66
2021/06/01 07:06:28;;;;;;;3.65;1.60;;;20.80;42.80;;;;;;5092798;28;20409;-67
2021/06/01 07:08:54;;;;;;;2.60;1.40;;;20.70;42.70;;;;;;5092682;28;20127;-69
2021/06/01 07:11:20;;;;;;;2.83;1.38;;;20.80;42.50;;;;;;5093067;28;20555;-64
2021/06/01 07:14:04;;;;;;;3.47;1.60;;;20.70;42.60;;;;;;5092300;28;20491;-68
2021/06/01 07:16:29;;;;;;;6.10;3.05;;;20.80;42.60;;;;;;5092590;28;20463;-68
2021/06/01 07:18:54;;;;;;;4.38;1.63;;;20.80;42.60;;;;;;5095412;28;20089;-66
2021/06/01 07:21:20;;;;;;;5.72;1.80;;;20.80;42.60;;;;;;5095716;28;20070;-65
2021/06/01 07:23:45;;;;;;;5.20;1.65;;;20.80;42.70;;;;;;5094849;28;20036;-68
2021/06/01 07:26:11;;;;;;;4.32;1.55;;;20.80;42.70;;;;;;5095456;28;20484;-67
2021/06/01 07:28:37;;;;;;;3.72;1.83;;;20.80;42.70;;;;;;5095422;28;20380;-66
2021/06/01 07:31:04;;;;;;;6.80;1.80;;;20.80;42.60;;;;;;5095295;28;20055;-68
2021/06/01 07:33:30;;;;;;;4.93;1.83;;;20.90;42.50;;;;;;5094836;28;20036;-65
2021/06/01 07:35:56;;;;;;;4.85;1.50;;;20.90;42.50;;;;;;5095348;28;20387;-67
2021/06/01 07:38:22;;;;;;;4.03;1.77;;;20.90;42.50;;;;;;5095270;28;20103;-66
2021/06/01 07:40:48;;;;;;;3.30;1.40;;;20.90;42.50;;;;;;5095245;28;20035;-65
2021/06/01 07:43:13;;;;;;;3.47;1.50;;;21.00;42.40;;;;;;5094719;28;20593;-65
2021/06/01 07:45:39;;;;;;;3.50;1.65;;;20.90;42.50;;;;;;5094846;28;20154;-65
2021/06/01 07:48:05;;;;;;;4.28;1.75;;;21.00;42.40;;;;;;5094808;28;20551;-65
2021/06/01 07:50:31;;;;;;;4.90;1.70;;;21.00;42.40;;;;;;5094976;28;20031;-65
2021/06/01 07:52:56;;;;;;;3.05;1.33;;;21.00;42.40;;;;;;5094668;28;20052;-67
2021/06/01 07:55:22;;;;;;;4.88;1.63;;;21.00;42.40;;;;;;5094283;28;20024;-66
2021/06/01 07:57:47;;;;;;;4.53;1.85;;;21.00;42.40;;;;;;5094810;28;20032;-65
2021/06/01 08:00:14;;;;;;;3.55;1.50;;;21.00;42.40;;;;;;5094593;28;20463;-65
2021/06/01 08:02:40;;;;;;;5.00;1.73;;;21.00;42.40;;;;;;5094504;28;20502;-67
2021/06/01 08:05:07;;;;;;;4.75;1.60;;;21.10;42.40;;;;;;5094177;28;20036;-65
2021/06/01 08:07:33;;;;;;;4.00;1.80;;;21.10;42.50;;;;;;5094507;28;20030;-66
2021/06/01 08:10:00;;;;;;;3.90;1.30;;;21.00;42.50;;;;;;5093704;28;20128;-66
2021/06/01 08:12:26;;;;;;;4.57;1.40;;;21.00;42.50;;;;;;5092803;28;20031;-66
2021/06/01 08:14:53;;;;;;;4.13;1.52;;;21.10;42.50;;;;;;5092510;28;20103;-66
2021/06/01 08:17:18;;;;;;;3.88;1.40;;;21.10;42.40;;;;;;5093026;28;20020;-66
2021/06/01 08:19:45;;;;;;;4.05;1.55;;;21.10;42.50;;;;;;5093331;28;20043;-66
2021/06/01 08:22:19;;;;;;;4.50;1.60;;;21.10;42.50;;;;;;5094271;28;20521;-66
2021/06/01 08:24:44;;;;;;;4.13;1.60;;;21.10;42.40;;;;;;5093268;28;20434;-67
2021/06/01 08:27:10;;;;;;;4.78;1.70;;;21.10;42.50;;;;;;5093267;28;20016;-67
2021/06/01 08:29:36;;;;;;;4.25;1.60;;;21.10;42.50;;;;;;5092198;28;20051;-64
2021/06/01 08:32:01;;;;;;;3.15;1.50;;;21.10;42.50;;;;;;5094122;28;20043;-67
2021/06/01 08:34:28;;;;;;;3.78;1.40;;;21.10;42.50;;;;;;5093599;28;20047;-65
2021/06/01 08:36:54;;;;;;;3.60;1.63;;;21.10;42.50;;;;;;5093951;28;20013;-66
2021/06/01 08:39:25;;;;;;;5.13;1.80;;;21.10;42.50;;;;;;5094035;28;20114;-66
2021/06/01 08:41:51;;;;;;;4.30;1.75;;;21.10;42.50;;;;;;5093973;28;20050;-64
2021/06/01 08:44:17;;;;;;;3.78;1.40;;;21.10;42.60;;;;;;5093182;28;20020;-65
2021/06/01 08:46:45;;;;;;;4.28;1.63;;;21.10;42.60;;;;;;5093928;28;20475;-67
2021/06/01 08:49:13;;;;;;;4.72;1.40;;;21.10;42.60;;;;;;5093925;28;20085;-68
2021/06/01 08:51:39;;;;;;;2.63;1.23;;;21.10;42.50;;;;;;5093640;28;20375;-67
2021/06/01 08:54:05;;;;;;;3.40;1.55;;;21.20;42.50;;;;;;5093365;28;20030;-68
2021/06/01 08:56:31;;;;;;;4.03;1.63;;;21.20;42.40;;;;;;5093722;28;20020;-67
2021/06/01 08:58:56;;;;;;;4.15;1.70;;;21.20;42.50;;;;;;5093393;28;20024;-66
2021/06/01 09:01:22;;;;;;;3.63;1.40;;;21.20;42.50;;;;;;5093598;28;20039;-65
2021/06/01 09:03:58;;;;;;;3.72;1.50;;;21.20;42.50;;;;;;5092759;28;20089;-65
2021/06/01 09:22:33;;;;;;;3.22;1.42;;;21.20;42.50;;;;;;5081247;28;20082;-65
2021/06/01 09:25:23;;;;;;;2.83;1.13;;;21.20;42.50;;;;;;5092556;28;20024;-66
2021/06/01 09:27:51;;;;;;;3.15;1.27;;;21.20;42.50;;;;;;5093465;28;20051;-66
2021/06/01 09:30:34;;;;;;;3.28;1.30;;;21.20;42.50;;;;;;5092965;28;20024;-65
2021/06/01 09:33:01;;;;;;;2.85;1.50;;;21.20;42.50;;;;;;5092872;28;20479;-66
2021/06/01 09:36:17;;;;;;;4.15;1.88;;;21.20;42.50;;;;;;5092496;28;20205;-66
2021/06/01 09:38:45;;;;;;;3.70;1.48;;;21.20;42.50;;;;;;5030322;28;20524;-64
2021/06/01 09:41:18;;;;;;;3.70;1.55;;;21.20;42.60;;;;;;5089800;28;20036;-65
2021/06/01 09:43:49;;;;;;;2.83;1.35;;;21.20;42.50;;;;;;5102522;28;20497;-70
2021/06/01 09:46:24;;;;;;;2.63;1.33;;;21.20;42.50;;;;;;5102869;28;20036;-66
2021/06/01 09:48:50;;;;;;;;;;;21.20;42.50;;;;;;5104906;28;20016;-68
2021/06/01 09:51:36;;;;;;;2.05;1.08;;;21.20;42.50;;;;;;5101721;28;20410;-67
2021/06/01 09:54:56;;;;;;;2.42;1.20;;;21.20;42.60;;;;;;5101506;28;20035;-68
2021/06/01 09:57:24;;;;;;;3.30;1.45;;;21.30;42.60;;;;;;5096877;28;20028;-67
2021/06/01 10:00:09;;;;;;;3.38;1.35;;;21.30;42.50;;;;;;5094146;28;20024;-66
2021/06/01 10:02:35;;;;;;;3.20;1.52;;;21.30;42.50;;;;;;5093466;28;20034;-66
2021/06/01 10:05:30;;;;;;;4.60;1.52;;;21.30;42.50;;;;;;5092338;28;20028;-66
2021/06/01 10:07:58;;;;;;;2.95;1.52;;;21.30;42.50;;;;;;5091576;28;20028;-63
2021/06/01 10:10:31;;;;;;;3.22;1.83;;;21.30;42.60;;;;;;5092948;28;20086;-64
2021/06/01 10:12:59;;;;;;;4.07;1.30;;;21.30;42.50;;;;;;5092696;28;20028;-64
2021/06/01 10:15:27;;;;;;;2.67;1.10;;;21.30;42.50;;;;;;5092423;28;20103;-63
2021/06/01 10:17:53;;;;;;;5.68;1.70;;;21.30;42.50;;;;;;5092998;28;20055;-63
2021/06/01 10:20:21;;;;;;;2.95;1.50;;;21.30;42.50;;;;;;5094222;28;20039;-64
2021/06/01 10:22:47;;;;;;;4.82;1.33;;;21.40;42.50;;;;;;5091296;28;20044;-63
2021/06/01 10:25:15;;;;;;;4.25;1.50;;;21.40;42.50;;;;;;5092784;28;20119;-64
2021/06/01 10:27:42;;;;;;;2.70;1.40;;;21.40;42.50;;;;;;5093081;28;20064;-64
2021/06/01 10:30:10;;;;;;;5.13;1.60;;;21.40;42.50;;;;;;5092597;28;20035;-64
2021/06/01 10:32:39;;;;;;;3.45;1.58;;;21.40;42.50;;;;;;5092679;28;20032;-64
2021/06/01 10:35:08;;;;;;;3.70;1.65;;;21.40;42.50;;;;;;5092302;28;20024;-64
2021/06/01 10:43:16;;;;;;;3.40;1.48;;;21.40;42.50;;;;;;5092617;28;20137;-66
2021/06/01 10:48:45;;;;;;;4.13;1.67;;;21.50;42.40;;;;;;5092932;28;20039;-65
2021/06/01 10:51:30;;;;;;;3.95;1.70;;;21.50;42.40;;;;;;5093697;28;20456;-66
2021/06/01 10:53:55;;;;;;;;;;;21.50;42.40;;;;;;5097222;28;20503;-64
2021/06/01 10:56:22;;;;;;;3.28;1.42;;;21.50;42.40;;;;;;5096209;28;19904;-65
2021/06/01 10:58:50;;;;;;;3.72;1.27;;;21.50;42.40;;;;;;5096669;28;20028;-66
2021/06/01 11:04:07;;;;;;;3.20;1.38;;;21.60;42.30;;;;;;5096500;28;20030;-68
2021/06/01 11:09:35;;;;;;;2.70;1.23;;;21.60;42.30;;;;;;5096375;28;20116;-68
2021/06/01 11:12:15;;;;;;;3.25;1.30;;;21.60;42.30;;;;;;5096183;28;20391;-64
2021/06/01 11:14:41;;;;;;;4.43;1.50;;;21.70;42.30;;;;;;5096070;28;20066;-65
2021/06/01 11:17:06;;;;;;;3.65;1.35;;;21.60;42.30;;;;;;5096244;28;20028;-66
2021/06/01 11:19:55;;;;;;;3.55;1.40;;;21.70;42.20;;;;;;5096391;28;20024;-67
2021/06/01 11:22:30;;;;;;;3.28;1.13;;;21.70;42.30;;;;;;5096610;28;20050;-64
2021/06/01 11:33:17;;;;;;;2.55;1.35;;;21.80;42.20;;;;;;5096123;28;20483;-64
2021/06/01 11:35:49;;;;;;;4.13;1.95;;;21.80;42.20;;;;;;5095349;28;20447;-64
2021/06/01 11:38:22;;;;;;;2.35;1.30;;;21.90;42.10;;;;;;5095985;28;20028;-62
2021/06/01 11:43:43;;;;;;;3.08;1.50;;;21.90;42.10;;;;;;5095763;28;20027;-64
2021/06/01 11:51:28;;;;;;;2.50;1.40;;;22.00;42.00;;;;;;5095717;28;20036;-65
2021/06/01 11:54:04;;;;;;;2.88;1.30;;;22.00;41.90;;;;;;5095440;28;20028;-65
2021/06/01 12:05:04;;;;;;;2.42;1.15;;;22.20;41.70;;;;;;5094434;28;20051;-65
2021/06/01 12:17:08;;;;;;;3.60;1.00;;;22.40;41.60;;;;;;5094638;28;20024;-65
2021/06/01 12:18:39;;;;;;;3.92;1.40;;;22.40;41.60;;;;;;5078806;28;20043;-65
2021/06/01 12:21:07;;;;;;;2.30;1.20;;;22.40;41.50;;;;;;5093864;28;20118;-64
2021/06/01 12:23:43;;;;;;;3.03;1.38;;;22.50;41.40;;;;;;5095245;28;20048;-64
2021/06/01 12:32:13;;;;;;;2.65;1.30;;;22.70;41.30;;;;;;5069141;28;20063;-65
2021/06/01 12:35:00;;;;;;;2.47;1.25;;;22.70;41.20;;;;;;5094913;28;20498;-65
2021/06/01 13:14:24;;;;;;;3.42;1.50;;;23.60;40.00;;;;;;5093481;28;20113;-65
2021/06/01 13:19:43;;;;;;;2.58;1.20;;;23.80;39.80;;;;;;5094443;28;20070;-65
2021/06/01 13:30:50;;;;;;;2.80;1.20;;;23.90;39.60;;;;;;5094373;28;20541;-65
2021/06/01 13:45:59;;;;;;;2.08;1.08;;;24.20;39.20;;;;;;5093826;28;20476;-65
2021/06/01 13:47:05;;;;;;;2.97;1.17;;;24.40;39.00;;;;;;5094037;28;20127;-65
2021/06/01 13:49:39;;;;;;;4.28;1.38;;;24.40;38.90;;;;;;5093798;28;20364;-65
2021/06/01 14:00:58;;;;;;;2.15;1.08;;;24.70;38.70;;;;;;5093348;28;20052;-65
2021/06/01 14:20:09;;;;;;;1.95;1.10;;;25.00;38.40;;;;;;5093173;28;20035;-66
2021/06/01 14:31:19;;;;;;;1.63;0.98;;;25.30;38.20;;;;;;5096423;28;20024;-65
2021/06/01 14:39:25;;;;;;;1.80;0.98;;;25.50;38.10;;;;;;5097882;28;19904;-64
2021/06/01 15:50:38;;;;;;;2.38;1.23;;;26.40;37.40;;;;;;5095931;28;20043;-64
2021/06/01 16:29:36;;;;;;;1.67;0.90;;;26.70;37.40;;;;;;5105582;28;20403;-64
2021/06/01 16:32:21;;;;;;;2.40;1.10;;;26.40;37.80;;;;;;5100116;28;20024;-63
2021/06/01 17:05:16;;;;;;;1.83;0.90;;;26.40;37.70;;;;;;5094801;28;20085;-65
2021/06/01 17:13:09;;;;;;;2.30;1.05;;;26.40;37.80;;;;;;5094075;28;20081;-66
2021/06/01 17:15:35;;;;;;;2.95;1.00;;;26.30;37.90;;;;;;5094152;28;20039;-64
2021/06/01 17:35:03;;;;;;;1.77;0.95;;;26.00;38.30;;;;;;5093931;28;20036;-64
2021/06/01 17:37:19;;;;;;;3.35;1.23;;;26.00;38.50;;;;;;5091515;28;20096;-64
2021/06/01 17:39:45;;;;;;;1.95;0.90;;;25.90;38.40;;;;;;5093952;28;20082;-65
2021/06/01 17:42:16;;;;;;;2.28;1.10;;;25.90;38.50;;;;;;5093854;28;20479;-64
2021/06/01 17:44:42;;;;;;;1.35;0.80;;;25.90;38.60;;;;;;5093859;28;20379;-65
2021/06/01 17:47:14;;;;;;;1.90;1.00;;;25.80;38.60;;;;;;5093770;28;20092;-65
2021/06/01 17:49:40;;;;;;;1.30;0.85;;;25.80;38.60;;;;;;5094177;28;20032;-64
2021/06/01 17:52:06;;;;;;;2.92;0.90;;;25.70;38.70;;;;;;5093476;28;20128;-65
2021/06/01 17:54:34;;;;;;;2.20;0.73;;;25.60;38.80;;;;;;5093019;28;20020;-64
2021/06/01 17:57:01;;;;;;;2.72;1.00;;;25.60;38.80;;;;;;5093528;28;20073;-64
2021/06/01 17:59:27;;;;;;;2.00;0.98;;;25.50;38.90;;;;;;5093393;28;20020;-65
2021/06/01 18:01:54;;;;;;;3.00;1.20;;;25.50;38.90;;;;;;5093166;28;20013;-64
2021/06/01 18:04:23;;;;;;;2.03;0.90;;;25.40;39.00;;;;;;5093086;28;20024;-65
2021/06/01 18:06:53;;;;;;;2.75;1.00;;;25.40;39.00;;;;;;5093355;28;20030;-65
2021/06/01 19:50:19;;;;;;;2.92;1.08;;;24.10;40.00;;;;;;5096408;28;20050;-64
2021/06/01 19:52:47;;;;;;;2.42;1.08;;;24.10;40.00;;;;;;5095876;28;20017;-64
2021/06/01 19:55:14;;;;;;;2.00;0.90;;;24.10;40.00;;;;;;5096134;28;20027;-64
2021/06/01 19:57:41;;;;;;;2.67;1.10;;;24.00;40.00;;;;;;5095870;28;20027;-65
2021/06/01 20:00:09;;;;;;;1.70;0.90;;;24.10;40.00;;;;;;5095790;28;20110;-64
2021/06/01 20:02:35;;;;;;;2.83;1.10;;;24.00;40.00;;;;;;5095702;28;20035;-65
2021/06/01 20:05:05;;;;;;;2.20;0.98;;;24.00;40.00;;;;;;5095445;28;20029;-65
2021/06/01 20:07:31;;;;;;;1.90;0.80;;;24.00;40.10;;;;;;5095317;28;20032;-64
2021/06/01 20:09:58;;;;;;;2.58;1.10;;;23.90;40.10;;;;;;5095582;28;20021;-65